createdAt,value
2019-05-20T00:00:24.696Z,60.37
2019-05-20T00:02:54.142Z,60.58
2019-05-20T00:05:23.649Z,60.58
2019-05-20T00:07:53.118Z,61.00
2019-05-20T00:10:22.552Z,60.69
2019-05-20T00:12:52.004Z,60.87
2019-05-20T00:15:21.431Z,61.04
2019-05-20T00:17:50.863Z,61.48
2019-05-20T00:20:20.315Z,61.41
2019-05-20T00:22:49.737Z,61.19
2019-05-20T00:25:19.175Z,60.76
2019-05-20T00:27:48.615Z,61.11
2019-05-20T00:30:18.142Z,61.33
2019-05-20T00:32:47.594Z,61.15
2019-05-20T00:35:17.033Z,60.80
2019-05-20T00:37:46.461Z,60.54
2019-05-20T00:40:16.586Z,60.43
2019-05-20T00:42:46.018Z,59.96
2019-05-20T00:45:15.560Z,61.03
2019-05-20T00:47:44.996Z,59.81
2019-05-20T00:50:14.524Z,59.80
2019-05-20T00:52:43.939Z,59.19
2019-05-20T00:55:21.534Z,58.61
2019-05-20T00:57:50.951Z,58.17
2019-05-20T01:03:03.465Z,57.95
2019-05-20T01:05:32.890Z,58.75
2019-05-20T01:08:02.326Z,58.42
2019-05-20T01:10:31.764Z,58.18
2019-05-20T01:13:01.206Z,58.17
2019-05-20T01:15:30.618Z,57.97
2019-05-20T01:17:59.964Z,58.04
2019-05-20T01:20:29.387Z,58.21
2019-05-20T01:22:58.737Z,58.32
2019-05-20T01:25:28.161Z,58.37
2019-05-20T01:27:57.563Z,58.55
2019-05-20T01:30:27.010Z,58.34
2019-05-20T01:32:56.442Z,57.64
2019-05-20T01:35:25.850Z,57.32
2019-05-20T01:37:55.273Z,57.32
2019-05-20T01:40:24.689Z,56.01
2019-05-20T01:42:54.044Z,54.95
2019-05-20T01:45:23.459Z,55.49
2019-05-20T01:47:52.899Z,55.24
2019-05-20T01:50:22.336Z,55.91
2019-05-20T01:52:51.758Z,56.14
2019-05-20T01:55:21.125Z,56.46
2019-05-20T01:57:50.550Z,56.02
2019-05-20T02:00:19.968Z,56.81
2019-05-20T02:02:49.479Z,56.51
2019-05-20T02:05:18.954Z,56.43
2019-05-20T02:07:48.371Z,56.57
2019-05-20T02:10:17.802Z,56.75
2019-05-20T02:12:47.235Z,57.17
2019-05-20T02:15:18.430Z,57.59
2019-05-20T02:17:47.865Z,57.46
2019-05-20T02:20:17.268Z,58.02
2019-05-20T02:22:46.717Z,58.28
2019-05-20T02:25:16.062Z,57.97
2019-05-20T02:27:45.495Z,58.10
2019-05-20T02:30:15.131Z,58.59
2019-05-20T02:32:44.564Z,58.56
2019-05-20T02:35:14.176Z,58.81
2019-05-20T02:37:43.598Z,59.40
2019-05-20T02:40:13.534Z,59.40
2019-05-20T02:42:42.983Z,59.39
2019-05-20T02:45:12.718Z,59.29
2019-05-20T02:47:42.130Z,59.23
2019-05-20T02:50:11.557Z,59.14
2019-05-20T02:52:40.999Z,59.45
2019-05-20T02:55:10.648Z,60.26
2019-05-20T02:57:40.117Z,60.39
2019-05-20T03:00:09.877Z,60.14
2019-05-20T03:02:39.236Z,60.00
2019-05-20T03:05:08.959Z,59.60
2019-05-20T03:07:38.396Z,59.30
2019-05-20T03:10:08.058Z,59.07
2019-05-20T03:12:37.479Z,59.56
2019-05-20T03:15:07.797Z,58.97
2019-05-20T03:17:37.235Z,59.09
2019-05-20T03:20:06.601Z,58.69
2019-05-20T03:22:36.024Z,58.88
2019-05-20T03:25:08.748Z,59.09
2019-05-20T03:27:38.630Z,59.51
2019-05-20T03:30:08.647Z,59.83
2019-05-20T03:32:38.069Z,59.89
2019-05-20T03:35:08.158Z,59.72
2019-05-20T03:37:37.569Z,59.49
2019-05-20T03:40:07.490Z,59.70
2019-05-20T03:42:36.926Z,59.53
2019-05-20T03:45:06.674Z,59.92
2019-05-20T03:47:36.063Z,59.70
2019-05-20T03:50:08.333Z,59.61
2019-05-20T03:52:37.762Z,59.75
2019-05-20T03:55:08.740Z,59.14
2019-05-20T03:57:38.092Z,59.03
2019-05-20T04:00:08.661Z,60.11
2019-05-20T04:02:38.087Z,60.78
2019-05-20T04:05:07.631Z,59.02
2019-05-20T04:07:36.992Z,57.84
2019-05-20T04:10:07.110Z,58.46
2019-05-20T04:12:36.540Z,57.30
2019-05-20T04:15:06.845Z,58.33
2019-05-20T04:17:36.252Z,60.43
2019-05-20T04:20:07.641Z,59.32
2019-05-20T04:22:37.065Z,57.09
2019-05-20T04:25:07.763Z,57.82
2019-05-20T04:27:37.154Z,59.21
2019-05-20T04:30:08.108Z,59.45
2019-05-20T04:32:37.440Z,57.64
2019-05-20T04:35:21.294Z,56.09
2019-05-20T04:37:38.239Z,56.09
2019-05-20T04:40:07.803Z,56.76
2019-05-20T04:42:37.239Z,56.50
2019-05-20T04:45:07.867Z,57.02
2019-05-20T04:47:37.408Z,58.20
2019-05-20T04:50:10.002Z,57.47
2019-05-20T04:52:39.408Z,56.94
2019-05-20T04:55:09.280Z,56.19
2019-05-20T04:57:38.691Z,55.52
2019-05-20T05:00:09.929Z,56.06
2019-05-20T05:02:43.244Z,55.86
2019-05-20T05:05:10.707Z,54.68
2019-05-20T05:07:40.150Z,52.74
2019-05-20T05:10:10.295Z,53.50
2019-05-20T05:12:39.716Z,53.50
2019-05-20T05:15:10.760Z,51.97
2019-05-20T05:17:40.173Z,51.75
2019-05-20T05:20:18.150Z,51.75
2019-05-20T05:22:42.507Z,49.41
2019-05-20T05:25:12.207Z,49.41
2019-05-20T05:27:41.574Z,48.39
2019-05-20T05:30:11.090Z,48.58
2019-05-20T05:32:43.942Z,48.11
2019-05-20T05:35:17.859Z,48.11
2019-05-20T05:37:47.857Z,46.82
2019-05-20T05:40:19.334Z,47.46
2019-05-20T05:42:48.772Z,47.34
2019-05-20T05:45:21.099Z,47.34
2019-05-20T05:47:50.509Z,47.62
2019-05-20T05:50:19.951Z,46.60
2019-05-20T05:52:49.374Z,46.22
2019-05-20T05:55:18.737Z,45.26
2019-05-20T05:57:48.205Z,46.17
2019-05-20T06:00:17.998Z,46.17
2019-05-20T06:02:47.427Z,45.10
2019-05-20T06:05:16.845Z,44.92
2019-05-20T06:07:46.213Z,43.91
2019-05-20T06:10:16.321Z,43.91
2019-05-20T06:12:45.678Z,43.10
2019-05-20T06:15:16.197Z,43.13
2019-05-20T06:17:45.687Z,43.13
2019-05-20T06:20:16.293Z,43.21
2019-05-20T06:22:45.863Z,41.67
2019-05-20T06:25:15.704Z,42.30
2019-05-20T06:27:45.126Z,42.30
2019-05-20T06:30:15.474Z,42.18
2019-05-20T06:32:44.807Z,42.18
2019-05-20T06:35:15.838Z,42.16
2019-05-20T06:37:47.044Z,40.33
2019-05-20T06:40:16.770Z,42.82
2019-05-20T06:42:46.009Z,42.82
2019-05-20T06:45:15.409Z,43.04
2019-05-20T06:47:44.755Z,42.09
2019-05-20T06:50:13.802Z,43.84
2019-05-20T06:52:42.947Z,41.45
2019-05-20T06:55:12.672Z,41.22
2019-05-20T06:57:42.075Z,43.65
2019-05-20T07:00:12.850Z,42.52
2019-05-20T07:02:41.989Z,41.73
2019-05-20T07:05:11.821Z,40.93
2019-05-20T07:07:40.943Z,40.40
2019-05-20T07:10:10.497Z,39.79
2019-05-20T07:12:41.514Z,39.47
2019-05-20T07:15:10.984Z,40.36
2019-05-20T07:17:40.383Z,40.51
2019-05-20T07:20:10.059Z,42.08
2019-05-20T07:22:54.562Z,39.02
2019-05-20T07:25:10.329Z,40.90
2019-05-20T07:27:39.502Z,38.82
2019-05-20T07:30:09.487Z,39.70
2019-05-20T07:32:38.516Z,39.18
2019-05-20T07:35:09.049Z,39.13
2019-05-20T07:37:38.136Z,38.75
2019-05-20T07:40:07.506Z,39.33
2019-05-20T07:42:36.842Z,36.37
2019-05-20T07:45:08.450Z,37.97
2019-05-20T07:47:37.789Z,38.84
2019-05-20T07:50:09.000Z,37.00
2019-05-20T07:52:38.714Z,38.32
2019-05-20T07:55:08.245Z,36.48
2019-05-20T07:57:40.574Z,39.61
2019-05-20T08:00:10.732Z,37.75
2019-05-20T08:02:40.278Z,38.66
2019-05-20T08:05:10.528Z,36.94
2019-05-20T08:07:51.469Z,38.84
2019-05-20T08:10:10.711Z,35.33
2019-05-20T08:12:39.851Z,37.07
2019-05-20T08:15:09.532Z,36.52
2019-05-20T08:17:38.696Z,37.66
2019-05-20T08:20:08.111Z,35.43
2019-05-20T08:22:37.235Z,36.25
2019-05-20T08:25:07.581Z,36.06
2019-05-20T08:27:36.772Z,35.52
2019-05-20T08:30:14.016Z,37.24
2019-05-20T08:32:41.943Z,36.80
2019-05-20T08:35:11.317Z,35.11
2019-05-20T08:37:45.393Z,34.10
2019-05-20T08:40:11.257Z,36.40
2019-05-20T08:42:40.308Z,36.69
2019-05-20T08:45:09.698Z,34.33
2019-05-20T08:47:38.836Z,34.67
2019-05-20T08:50:14.976Z,35.23
2019-05-20T08:52:39.996Z,32.64
2019-05-20T08:55:09.130Z,32.54
2019-05-20T08:57:38.231Z,34.66
2019-05-20T09:00:10.269Z,35.54
2019-05-20T09:02:39.415Z,33.80
2019-05-20T09:05:08.545Z,34.18
2019-05-20T09:07:37.690Z,34.66
2019-05-20T09:10:07.130Z,33.43
2019-05-20T09:12:36.229Z,32.59
2019-05-20T09:15:07.072Z,30.99
2019-05-20T09:17:38.840Z,32.03
2019-05-20T09:20:09.225Z,32.55
2019-05-20T09:22:38.573Z,31.83
2019-05-20T09:25:09.478Z,32.02
2019-05-20T09:27:38.871Z,32.63
2019-05-20T09:30:09.252Z,33.48
2019-05-20T09:32:42.826Z,32.13
2019-05-20T09:35:09.851Z,32.36
2019-05-20T09:37:38.939Z,31.56
2019-05-20T09:40:09.735Z,32.33
2019-05-20T09:42:41.091Z,30.90
2019-05-20T09:45:09.825Z,30.51
2019-05-20T09:47:39.028Z,31.51
2019-05-20T09:50:08.462Z,30.40
2019-05-20T09:52:37.522Z,29.39
2019-05-20T09:55:07.451Z,28.73
2019-05-20T09:57:36.597Z,29.49
2019-05-20T10:00:07.519Z,29.97
2019-05-20T10:02:38.246Z,28.46
2019-05-20T10:05:07.653Z,27.59
2019-05-20T10:07:36.837Z,26.88
2019-05-20T10:10:07.453Z,27.98
2019-05-20T10:12:46.062Z,28.51
2019-05-20T10:15:07.968Z,29.09
2019-05-20T10:17:37.103Z,29.02
2019-05-20T10:20:10.012Z,27.33
2019-05-20T10:22:39.169Z,28.12
2019-05-20T10:25:09.322Z,27.14
2019-05-20T10:27:38.452Z,26.33
2019-05-20T10:30:08.751Z,27.07
2019-05-20T10:32:37.896Z,27.30
2019-05-20T10:35:07.757Z,26.80
2019-05-20T10:37:36.877Z,26.98
2019-05-20T10:40:06.815Z,26.25
2019-05-20T10:42:35.938Z,25.44
2019-05-20T10:45:06.474Z,26.81
2019-05-20T10:47:35.614Z,26.17
2019-05-20T10:50:06.165Z,26.50
2019-05-20T10:52:35.226Z,24.55
2019-05-20T10:55:08.133Z,23.52
2019-05-20T10:57:37.286Z,26.39
2019-05-20T11:00:08.417Z,23.26
2019-05-20T11:02:37.484Z,24.30
2019-05-20T11:05:08.515Z,25.62
2019-05-20T11:07:37.636Z,22.94
2019-05-20T11:10:07.620Z,24.49
2019-05-20T11:12:36.904Z,24.83
2019-05-20T11:15:07.602Z,23.87
2019-05-20T11:17:36.791Z,25.07
2019-05-20T11:20:09.771Z,25.75
2019-05-20T11:22:38.892Z,25.97
2019-05-20T11:25:08.474Z,28.41
2019-05-20T11:27:37.595Z,27.31
2019-05-20T11:30:07.964Z,25.87
2019-05-20T11:32:37.103Z,24.36
2019-05-20T11:35:08.241Z,26.60
2019-05-20T11:37:37.367Z,25.58
2019-05-20T11:40:09.718Z,25.09
2019-05-20T11:42:39.453Z,24.46
2019-05-20T11:45:09.615Z,25.02
2019-05-20T11:47:38.733Z,24.72
2019-05-20T11:50:09.285Z,23.07
2019-05-20T11:52:38.331Z,24.74
2019-05-20T11:55:08.686Z,22.73
2019-05-20T11:57:37.930Z,23.21
2019-05-20T12:00:08.057Z,24.26
2019-05-20T12:02:37.174Z,23.14
2019-05-20T12:05:07.472Z,24.89
2019-05-20T12:07:36.509Z,23.37
2019-05-20T12:10:09.695Z,24.23
2019-05-20T12:12:38.840Z,24.27
2019-05-20T12:15:09.663Z,22.94
2019-05-20T12:17:38.806Z,24.53
2019-05-20T12:20:10.881Z,24.32
2019-05-20T12:22:39.684Z,24.78
2019-05-20T12:25:09.355Z,23.34
2019-05-20T12:27:38.476Z,23.44
2019-05-20T12:30:08.249Z,24.36
2019-05-20T12:32:37.294Z,23.01
2019-05-20T12:35:08.070Z,25.04
2019-05-20T12:37:37.175Z,23.47
2019-05-20T12:40:08.394Z,23.83
2019-05-20T12:42:38.261Z,24.35
2019-05-20T12:45:08.971Z,23.28
2019-05-20T12:47:38.149Z,24.36
2019-05-20T12:50:08.460Z,24.03
2019-05-20T12:52:37.592Z,21.99
2019-05-20T12:55:09.465Z,21.67
2019-05-20T12:57:38.395Z,20.74
2019-05-20T13:00:12.124Z,22.59
2019-05-20T13:02:43.151Z,21.39
2019-05-20T13:05:12.720Z,21.68
2019-05-20T13:07:41.855Z,21.64
2019-05-20T13:10:28.045Z,21.59
2019-05-20T13:12:42.474Z,21.92
2019-05-20T13:15:12.032Z,22.12
2019-05-20T13:17:44.696Z,20.86
2019-05-20T13:20:12.340Z,21.45
2019-05-20T13:22:41.469Z,23.72
2019-05-20T13:25:10.738Z,22.81
2019-05-20T13:27:39.854Z,23.14
2019-05-20T13:30:10.772Z,22.05
2019-05-20T13:32:39.897Z,22.51
2019-05-20T13:35:09.323Z,22.48
2019-05-20T13:37:38.447Z,21.34
2019-05-20T13:40:08.191Z,22.12
2019-05-20T13:42:37.724Z,22.46
2019-05-20T13:45:07.150Z,23.99
2019-05-20T13:47:36.205Z,22.97
2019-05-20T13:50:09.978Z,21.57
2019-05-20T13:52:39.034Z,20.56
2019-05-20T13:55:09.934Z,20.43
2019-05-20T13:57:39.177Z,21.53
2019-05-20T14:00:08.951Z,20.64
2019-05-20T14:02:38.165Z,21.00
2019-05-20T14:05:07.318Z,21.34
2019-05-20T14:07:36.592Z,22.48
2019-05-20T14:10:07.806Z,22.75
2019-05-20T14:12:37.032Z,21.86
2019-05-20T14:15:08.544Z,21.96
2019-05-20T14:17:39.486Z,21.61
2019-05-20T14:20:08.824Z,21.73
2019-05-20T14:22:38.052Z,22.19
2019-05-20T14:25:07.884Z,22.89
2019-05-20T14:27:37.236Z,22.82
2019-05-20T14:30:11.459Z,22.19
2019-05-20T14:32:40.903Z,26.90
2019-05-20T14:35:10.949Z,28.78
2019-05-20T14:37:40.191Z,29.62
2019-05-20T14:40:09.927Z,30.05
2019-05-20T14:42:39.395Z,31.79
2019-05-20T14:45:08.565Z,31.77
2019-05-20T14:47:37.899Z,32.77
2019-05-20T14:50:10.888Z,34.04
2019-05-20T14:52:40.234Z,33.98
2019-05-20T14:55:10.469Z,34.62
2019-05-20T14:57:39.883Z,33.77
2019-05-20T15:00:09.730Z,34.56
2019-05-20T15:02:39.072Z,35.02
2019-05-20T15:05:09.930Z,35.93
2019-05-20T15:07:39.079Z,36.50
2019-05-20T15:10:10.107Z,36.91
2019-05-20T15:12:39.364Z,36.64
2019-05-20T15:15:09.014Z,38.53
2019-05-20T15:17:38.421Z,38.96
2019-05-20T15:20:09.092Z,38.96
2019-05-20T15:22:38.716Z,39.16
2019-05-20T15:25:08.949Z,39.16
2019-05-20T15:27:38.701Z,39.13
2019-05-20T15:30:10.146Z,39.28
2019-05-20T15:32:39.589Z,39.28
2019-05-20T15:35:09.313Z,39.72
2019-05-20T15:37:38.931Z,39.48
2019-05-20T15:40:09.200Z,39.57
2019-05-20T15:42:38.710Z,39.60
2019-05-20T15:45:10.058Z,39.60
2019-05-20T15:47:39.671Z,39.97
2019-05-20T15:50:10.602Z,55.23
2019-05-20T15:52:40.496Z,55.23
2019-05-20T15:55:10.031Z,55.13
2019-05-20T15:57:39.632Z,55.25
2019-05-20T16:00:10.054Z,58.03
2019-05-20T16:02:39.632Z,55.95
2019-05-20T16:05:09.617Z,55.95
2019-05-20T16:07:39.219Z,56.57
2019-05-20T16:10:08.943Z,58.16
2019-05-20T16:12:38.479Z,58.16
2019-05-20T16:15:08.645Z,59.66
2019-05-20T16:17:38.269Z,58.77
2019-05-20T16:20:08.349Z,58.08
2019-05-20T16:22:37.787Z,58.08
2019-05-20T16:25:10.422Z,57.34
2019-05-20T16:27:39.867Z,56.37
2019-05-20T16:30:10.955Z,55.67
2019-05-20T16:32:40.506Z,56.88
2019-05-20T16:35:09.917Z,56.76
2019-05-20T16:37:39.373Z,54.82
2019-05-20T16:40:10.089Z,55.15
2019-05-20T16:42:39.747Z,55.97
2019-05-20T16:45:11.981Z,56.52
2019-05-20T16:47:40.654Z,54.91
2019-05-20T16:50:11.188Z,56.18
2019-05-20T16:52:40.612Z,53.60
2019-05-20T16:55:10.447Z,55.17
2019-05-20T16:57:39.898Z,53.99
2019-05-20T17:00:29.119Z,55.45
2019-05-20T17:02:40.870Z,55.29
2019-05-20T17:05:10.302Z,54.73
2019-05-20T17:07:39.754Z,53.96
2019-05-20T17:10:09.881Z,55.79
2019-05-20T17:12:39.336Z,53.83
2019-05-20T17:15:09.056Z,55.16
2019-05-20T17:17:38.494Z,54.26
2019-05-20T17:20:09.736Z,54.95
2019-05-20T17:22:39.368Z,55.61
2019-05-20T17:25:09.077Z,57.36
2019-05-20T17:27:38.511Z,56.76
2019-05-20T17:30:08.654Z,57.52
2019-05-20T17:32:38.115Z,56.66
2019-05-20T17:35:09.546Z,57.19
2019-05-20T17:37:55.554Z,57.19
2019-05-20T17:40:26.412Z,56.83
2019-05-20T17:42:55.842Z,55.88
2019-05-20T17:45:33.065Z,57.13
2019-05-20T17:48:07.525Z,56.15
2019-05-20T17:50:42.547Z,57.74
2019-05-20T17:53:11.966Z,57.66
2019-05-20T17:55:41.634Z,58.50
2019-05-20T17:58:11.073Z,56.05
2019-05-20T18:00:40.514Z,56.41
2019-05-20T18:03:09.963Z,57.93
2019-05-20T18:05:39.431Z,56.80
2019-05-20T18:08:08.844Z,57.46
2019-05-20T18:10:38.259Z,57.24
2019-05-20T18:13:07.696Z,59.01
2019-05-20T18:15:37.111Z,59.21
2019-05-20T18:18:06.559Z,58.00
2019-05-20T18:20:35.976Z,57.19
2019-05-20T18:23:05.427Z,59.31
2019-05-20T18:25:34.840Z,60.02
2019-05-20T18:28:04.683Z,58.08
2019-05-20T18:30:34.130Z,59.83
2019-05-20T18:33:03.604Z,61.43
2019-05-20T18:35:33.077Z,58.73
2019-05-20T18:38:02.744Z,59.55
2019-05-20T18:40:32.358Z,58.00
2019-05-20T18:43:01.714Z,59.75
2019-05-20T18:45:31.179Z,58.51
2019-05-20T18:48:00.690Z,59.38
2019-05-20T18:50:30.139Z,57.76
2019-05-20T18:52:59.606Z,57.69
2019-05-20T18:55:29.528Z,59.80
2019-05-20T18:57:58.944Z,59.74
2019-05-20T19:00:31.189Z,58.58
2019-05-20T19:03:00.600Z,58.92
2019-05-20T19:05:30.083Z,58.56
2019-05-20T19:07:59.534Z,58.08
2019-05-20T19:10:29.056Z,59.18
2019-05-20T19:12:58.497Z,61.06
2019-05-20T19:15:27.952Z,60.14
2019-05-20T19:17:57.384Z,59.48
2019-05-20T19:20:26.819Z,60.30
2019-05-20T19:22:56.271Z,60.62
2019-05-20T19:25:36.945Z,61.43
2019-05-20T19:27:56.896Z,60.81
2019-05-20T19:30:26.318Z,60.88
2019-05-20T19:32:55.769Z,60.73
2019-05-20T19:35:25.207Z,60.20
2019-05-20T19:37:54.647Z,61.04
2019-05-20T19:40:24.077Z,61.05
2019-05-20T19:42:53.505Z,60.20
2019-05-20T19:45:22.947Z,59.86
2019-05-20T19:47:52.397Z,59.10
2019-05-20T19:50:21.844Z,59.73
2019-05-20T19:52:51.349Z,60.48
2019-05-20T19:55:20.795Z,61.15
2019-05-20T19:57:50.216Z,61.58
2019-05-20T20:00:19.745Z,59.75
2019-05-20T20:02:49.263Z,62.67
2019-05-20T20:05:18.684Z,63.06
2019-05-20T20:07:48.113Z,62.58
2019-05-20T20:10:17.546Z,61.66
2019-05-20T20:12:46.985Z,60.30
2019-05-20T20:15:20.279Z,61.88
2019-05-20T20:17:49.698Z,61.56
2019-05-20T20:20:19.142Z,62.23
2019-05-20T20:22:48.568Z,62.85
2019-05-20T20:25:18.020Z,63.26
2019-05-20T20:27:47.430Z,62.80
2019-05-20T20:30:16.903Z,63.08
2019-05-20T20:32:46.346Z,62.49
2019-05-20T20:35:15.885Z,62.64
2019-05-20T20:37:45.306Z,63.54
2019-05-20T20:40:16.203Z,64.41
2019-05-20T20:42:45.557Z,63.17
2019-05-20T20:45:14.963Z,65.16
2019-05-20T20:47:44.397Z,63.47
2019-05-20T20:50:14.002Z,64.66
2019-05-20T20:52:43.419Z,66.68
2019-05-20T20:55:13.738Z,66.86
2019-05-20T20:57:43.361Z,65.40
2019-05-20T21:00:13.407Z,65.52
2019-05-20T21:02:52.967Z,67.21
2019-05-20T21:05:13.850Z,66.62
2019-05-20T21:07:43.273Z,65.67
2019-05-20T21:10:13.046Z,65.83
2019-05-20T21:12:42.509Z,66.75
2019-05-20T21:15:11.927Z,67.10
2019-05-20T21:17:41.299Z,68.61
2019-05-20T21:20:10.920Z,68.30
2019-05-20T21:22:40.356Z,68.68
2019-05-20T21:25:09.790Z,67.49
2019-05-20T21:27:39.219Z,66.79
2019-05-20T21:30:09.361Z,65.78
2019-05-20T21:32:38.794Z,67.13
2019-05-20T21:35:08.301Z,66.68
2019-05-20T21:37:37.655Z,65.51
2019-05-20T21:40:07.580Z,67.68
2019-05-20T21:42:36.927Z,67.16
2019-05-20T21:45:07.237Z,65.98
2019-05-20T21:47:36.666Z,65.26
2019-05-20T21:50:06.778Z,64.92
2019-05-20T21:52:36.220Z,64.82
2019-05-20T21:55:07.176Z,65.68
2019-05-20T21:57:36.539Z,67.71
2019-05-20T22:00:11.337Z,66.46
2019-05-20T22:02:40.698Z,67.01
2019-05-20T22:05:10.217Z,67.82
2019-05-20T22:07:39.587Z,67.27
2019-05-20T22:10:09.281Z,68.74
2019-05-20T22:12:38.633Z,69.98
2019-05-20T22:15:08.255Z,70.49
2019-05-20T22:17:37.677Z,71.01
2019-05-20T22:20:07.132Z,70.14
2019-05-20T22:22:38.143Z,69.81
2019-05-20T22:25:07.514Z,71.04
2019-05-20T22:27:36.951Z,71.08
2019-05-20T22:30:07.789Z,70.70
2019-05-20T22:32:37.216Z,71.12
2019-05-20T22:35:08.451Z,71.59
2019-05-20T22:37:37.824Z,71.12
2019-05-20T22:40:10.117Z,71.69
2019-05-20T22:42:39.466Z,72.06
2019-05-20T22:45:08.897Z,71.45
2019-05-20T22:47:38.249Z,71.40
2019-05-20T22:50:07.782Z,70.80
2019-05-20T22:52:37.221Z,69.99
2019-05-20T22:55:07.056Z,71.21
2019-05-20T22:57:36.468Z,71.61
2019-05-20T23:00:06.989Z,72.50
2019-05-20T23:02:36.438Z,72.89
2019-05-20T23:05:05.885Z,72.48
2019-05-20T23:07:35.308Z,71.81
2019-05-20T23:10:07.467Z,71.93
2019-05-20T23:12:36.907Z,73.05
2019-05-20T23:15:07.637Z,73.95
2019-05-20T23:17:37.055Z,73.56
2019-05-20T23:20:07.875Z,73.22
2019-05-20T23:22:37.227Z,73.79
2019-05-20T23:25:06.748Z,75.37
2019-05-20T23:27:36.182Z,74.93
2019-05-20T23:30:07.284Z,74.36
2019-05-20T23:32:36.642Z,74.35
2019-05-20T23:35:07.487Z,74.40
2019-05-20T23:37:36.922Z,74.95
2019-05-20T23:40:07.951Z,74.85
2019-05-20T23:42:37.314Z,75.21
2019-05-20T23:45:08.434Z,75.73
2019-05-20T23:47:37.847Z,75.49
2019-05-20T23:50:07.863Z,75.56
2019-05-20T23:52:37.259Z,75.76
2019-05-20T23:55:08.497Z,75.23
2019-05-20T23:57:37.864Z,75.71
